Time;durP1;ratioP1;P1;durP2;ratioP2;P2;SDS_P1;SDS_P2;PMS_P1;PMS_P2;Temp;Humidity;BMP_temperature;BMP_pressure;BME280_temperature;BME280_humidity;BME280_pressure;Samples;Min_cycle;Max_cycle;Signal;HPM_P1;HPM_P2
2022/06/12 00:00:53;;;;;;;;;;;;;;;17.87;67.35;100061.16;5062578;28;858;-62
2022/06/12 00:03:19;;;;;;;;;;;;;;;18.34;63.77;100052.97;5068528;28;1013;-62
2022/06/12 00:05:45;;;;;;;;;;;;;;;18.18;62.61;100060.66;5068802;28;956;-62
2022/06/12 00:08:10;;;;;;;;;;;;;;;17.86;62.18;100054.00;5070806;28;976;-62
2022/06/12 00:10:37;;;;;;;;;;;;;;;17.83;60.96;100064.81;5074086;28;1000;-62
2022/06/12 00:13:03;;;;;;;;;;;;;;;17.91;59.96;100067.72;5066087;28;945;-62
2022/06/12 00:15:28;;;;;;;;;;;;;;;18.09;58.47;100077.06;5070676;28;1121;-62
2022/06/12 00:17:54;;;;;;;;;;;;;;;17.97;58.27;100068.44;5061074;28;1913;-62
2022/06/12 00:20:20;;;;;;;;;;;;;;;17.42;59.32;100061.56;5055728;28;1031;-62
2022/06/12 00:22:45;;;;;;;;;;;;;;;17.69;58.28;100073.00;5065983;28;1035;-62
2022/06/12 00:25:12;;;;;;;;;;;;;;;18.03;56.69;100069.19;5071534;28;1027;-62
2022/06/12 00:27:38;;;;;;;;;;;;;;;17.64;57.62;100060.13;5068561;28;1087;-62
2022/06/12 00:30:04;;;;;;;;;;;;;;;17.23;58.77;100063.47;5063708;28;1403;-62
2022/06/12 00:32:30;;;;;;;;;;;;;;;17.47;58.17;100057.09;5066183;28;1044;-62
2022/06/12 00:34:56;;;;;;;;;;;;;;;17.67;56.96;100051.31;5070843;28;928;-62
2022/06/12 00:37:22;;;;;;;;;;;;;;;17.66;56.87;100054.34;5058500;28;1964;-63
2022/06/12 00:39:48;;;;;;;;;;;;;;;17.52;57.07;100059.78;5068041;28;988;-62
2022/06/12 00:42:24;;;;;;;;;;;;;;;17.25;57.82;100040.09;5073596;28;949;-62
2022/06/12 00:44:49;;;;;;;;;;;;;;;17.62;56.51;100037.63;5072175;28;1023;-63
2022/06/12 00:47:15;;;;;;;;;;;;;;;17.59;56.58;100039.03;5068305;28;919;-63
2022/06/12 00:49:45;;;;;;;;;;;;;;;17.86;56.08;100039.44;5066178;28;975;-63
2022/06/12 00:52:25;;;;;;;;;;;;;;;17.91;55.77;100034.72;5063540;28;1072;-64
2022/06/12 00:54:51;;;;;;;;;;;;;;;17.44;57.00;100031.81;5045722;28;1000;-62
2022/06/12 00:57:17;;;;;;;;;;;;;;;17.21;57.81;100038.22;5051992;28;1913;-63
2022/06/12 00:59:43;;;;;;;;;;;;;;;17.45;56.80;100033.47;5061838;28;905;-63
2022/06/12 01:02:10;;;;;;;;;;;;;;;17.60;56.33;100035.19;5067839;28;1005;-62
2022/06/12 01:07:21;;;;;;;;;;;;;;;17.49;56.67;100030.94;5072771;28;968;-62
2022/06/12 01:09:47;;;;;;;;;;;;;;;17.16;57.21;100028.09;5066035;28;1111;-62
2022/06/12 01:12:14;;;;;;;;;;;;;;;17.62;56.38;100034.88;5065967;28;956;-63
2022/06/12 01:14:41;;;;;;;;;;;;;;;17.71;56.69;100041.34;5069482;28;1241;-62
2022/06/12 01:17:07;;;;;;;;;;;;;;;17.41;58.10;100031.63;5062657;28;1971;-62
2022/06/12 01:19:34;;;;;;;;;;;;;;;17.43;58.65;100030.22;5071404;28;992;-62
2022/06/12 01:22:18;;;;;;;;;;;;;;;17.60;58.15;100028.88;5047333;28;1014;-63
2022/06/12 01:24:50;;;;;;;;;;;;;;;18.02;57.25;100035.38;5064902;28;1103;-64
2022/06/12 01:27:28;;;;;;;;;;;;;;;17.60;58.68;100048.13;5066952;28;1005;-64
2022/06/12 01:29:53;;;;;;;;;;;;;;;17.28;59.73;100035.94;5068932;28;1087;-64
2022/06/12 01:32:38;;;;;;;;;;;;;;;17.64;58.89;100032.63;5065558;28;1387;-64
2022/06/12 01:35:10;;;;;;;;;;;;;;;17.83;58.37;100043.63;5055223;28;1014;-64
2022/06/12 01:37:56;;;;;;;;;;;;;;;18.08;57.70;100039.66;5065256;28;1914;-64
2022/06/12 01:40:21;;;;;;;;;;;;;;;17.91;58.22;100050.41;5050140;28;1192;-64
2022/06/12 01:42:49;;;;;;;;;;;;;;;17.66;59.13;100048.84;5070990;28;972;-63
2022/06/12 01:45:32;;;;;;;;;;;;;;;17.48;59.39;100054.03;5050671;28;1178;-63
2022/06/12 01:48:14;;;;;;;;;;;;;;;17.83;58.46;100048.31;5071492;28;1032;-64
2022/06/12 01:50:55;;;;;;;;;;;;;;;17.84;58.40;100047.16;5045997;28;870;-64
2022/06/12 01:53:27;;;;;;;;;;;;;;;17.50;59.64;100042.75;5047774;28;1099;-63
2022/06/12 01:55:54;;;;;;;;;;;;;;;17.26;60.07;100032.66;5048370;28;1021;-63
2022/06/12 01:58:25;;;;;;;;;;;;;;;17.71;58.88;100027.59;5071331;28;1890;-63
2022/06/12 02:00:56;;;;;;;;;;;;;;;18.07;57.71;100026.19;5071772;28;920;-63
2022/06/12 02:03:29;;;;;;;;;;;;;;;17.70;58.75;100023.19;5044809;28;950;-63
2022/06/12 02:05:57;;;;;;;;;;;;;;;17.24;60.26;100021.97;5053944;28;1024;-64
2022/06/12 02:08:33;;;;;;;;;;;;;;;17.26;60.02;100024.41;5053001;28;1033;-63
2022/06/12 02:13:11;;;;;;;;;;;;;;;17.73;59.02;100030.84;5052632;28;1041;-63
2022/06/12 02:13:46;;;;;;;;;;;;;;;17.99;59.87;100027.69;5054540;28;1009;-63
2022/06/12 02:16:13;;;;;;;;;;;;;;;18.25;61.00;100030.00;5047452;28;1902;-63
2022/06/12 02:18:39;;;;;;;;;;;;;;;18.16;62.54;100024.41;5067158;28;1134;-63
2022/06/12 02:21:14;;;;;;;;;;;;;;;18.11;63.64;100025.28;5048875;28;973;-63
2022/06/12 02:23:57;;;;;;;;;;;;;;;18.30;63.92;100029.94;5065273;28;1071;-63
2022/06/12 02:26:25;;;;;;;;;;;;;;;18.38;64.50;100017.38;5072385;28;1139;-64
2022/06/12 02:28:51;;;;;;;;;;;;;;;18.63;64.27;100021.59;5046565;28;985;-63
2022/06/12 02:31:22;;;;;;;;;;;;;;;18.75;64.45;100021.88;5054372;28;1024;-63
2022/06/12 02:33:50;;;;;;;;;;;;;;;18.51;65.05;100029.53;5051859;28;1032;-64
2022/06/12 02:36:20;;;;;;;;;;;;;;;18.22;64.62;100027.88;5050525;28;1941;-64
2022/06/12 02:38:51;;;;;;;;;;;;;;;17.66;62.68;100027.66;5057146;28;1020;-63
2022/06/12 02:41:18;;;;;;;;;;;;;;;17.39;59.20;100031.09;5049223;28;985;-63
2022/06/12 02:43:44;;;;;;;;;;;;;;;17.38;55.78;100022.03;5054916;28;1069;-63
2022/06/12 02:46:21;;;;;;;;;;;;;;;17.75;52.49;100023.13;5064851;28;973;-63
2022/06/12 02:48:46;;;;;;;;;;;;;;;17.51;51.16;100019.66;5051921;28;1214;-63
2022/06/12 02:51:15;;;;;;;;;;;;;;;17.38;50.18;100032.22;5049377;28;1219;-62
2022/06/12 02:53:50;;;;;;;;;;;;;;;17.40;49.18;100018.97;5052992;28;1084;-62
2022/06/12 02:56:18;;;;;;;;;;;;;;;17.41;49.78;100021.44;5063177;28;1982;-62
2022/06/12 02:59:13;;;;;;;;;;;;;;;17.49;51.50;100010.88;5046278;28;1166;-65
2022/06/12 03:01:42;;;;;;;;;;;;;;;17.57;53.84;100013.78;4986104;28;1160;-65
2022/06/12 03:04:19;;;;;;;;;;;;;;;18.06;53.85;100014.38;5046257;28;1506;-65
2022/06/12 03:06:45;;;;;;;;;;;;;;;17.75;56.02;100009.38;5050878;28;1155;-66
2022/06/12 03:09:10;;;;;;;;;;;;;;;17.84;56.73;100000.41;5066494;28;1304;-65
2022/06/12 03:11:37;;;;;;;;;;;;;;;18.02;57.03;100007.84;5064557;28;1246;-65
2022/06/12 03:14:04;;;;;;;;;;;;;;;18.04;57.55;100008.34;5068166;28;1481;-66
2022/06/12 03:16:30;;;;;;;;;;;;;;;18.29;57.46;100000.78;5052590;28;1906;-65
2022/06/12 03:19:05;;;;;;;;;;;;;;;18.20;58.13;99992.41;5066909;28;1226;-65
2022/06/12 03:21:50;;;;;;;;;;;;;;;18.38;57.78;99998.91;5052197;28;1291;-65
2022/06/12 03:24:15;;;;;;;;;;;;;;;18.41;58.14;99986.50;5070775;28;1103;-67
2022/06/12 03:26:59;;;;;;;;;;;;;;;18.46;58.11;99994.66;5063024;28;1055;-66
2022/06/12 03:29:25;;;;;;;;;;;;;;;18.44;58.38;100008.72;5068023;28;1139;-68
2022/06/12 03:32:08;;;;;;;;;;;;;;;18.46;58.50;100000.16;5066712;28;1303;-66
2022/06/12 03:34:43;;;;;;;;;;;;;;;18.42;58.61;100005.44;5070345;28;989;-66
2022/06/12 03:37:14;;;;;;;;;;;;;;;17.90;60.24;100008.28;5052054;28;1972;-66
2022/06/12 03:39:43;;;;;;;;;;;;;;;17.60;60.91;100023.38;5069690;28;1056;-62
2022/06/12 03:42:19;;;;;;;;;;;;;;;17.55;61.91;100018.75;5052820;28;1084;-63
2022/06/12 03:45:08;;;;;;;;;;;;;;;17.92;60.50;100010.75;5044707;28;981;-65
2022/06/12 03:47:36;;;;;;;;;;;;;;;18.29;58.20;100028.28;5056801;28;1274;-66
2022/06/12 03:50:11;;;;;;;;;;;;;;;18.03;58.54;100042.47;5068856;28;957;-64
2022/06/12 03:52:38;;;;;;;;;;;;;;;17.65;59.03;100037.03;5071175;28;1305;-67
2022/06/12 03:55:19;;;;;;;;;;;;;;;17.73;58.23;100032.78;5071307;28;973;-63
2022/06/12 03:57:54;;;;;;;;;;;;;;;17.90;57.10;100030.28;5051536;28;1914;-64
2022/06/12 04:00:24;;;;;;;;;;;;;;;17.69;57.56;100038.06;5072418;28;1135;-66
2022/06/12 04:03:03;;;;;;;;;;;;;;;17.44;58.22;100031.81;5070003;28;1335;-63
2022/06/12 04:05:34;;;;;;;;;;;;;;;17.70;58.17;100031.44;5039539;28;953;-64
2022/06/12 04:08:00;;;;;;;;;;;;;;;17.88;57.49;100040.78;5071167;28;999;-63
2022/06/12 04:10:26;;;;;;;;;;;;;;;18.28;56.04;100038.47;5065627;28;1119;-66
2022/06/12 04:12:52;;;;;;;;;;;;;;;17.89;57.06;100019.59;5041779;28;1084;-66
2022/06/12 04:15:19;;;;;;;;;;;;;;;17.81;57.58;100028.53;5063896;28;1166;-66
2022/06/12 04:17:44;;;;;;;;;;;;;;;17.77;57.67;100029.13;5060917;28;1913;-62
2022/06/12 04:20:14;;;;;;;;;;;;;;;17.86;57.63;100022.94;5074920;28;1107;-65
2022/06/12 04:22:54;;;;;;;;;;;;;;;17.88;57.40;100023.44;5055981;28;1241;-63
2022/06/12 04:25:40;;;;;;;;;;;;;;;18.03;57.19;100025.16;5050447;28;1087;-64
2022/06/12 04:28:07;;;;;;;;;;;;;;;17.92;57.48;100024.53;5064655;28;996;-65
2022/06/12 04:30:34;;;;;;;;;;;;;;;18.16;56.63;100018.91;5063826;28;859;-64
2022/06/12 04:33:19;;;;;;;;;;;;;;;17.92;57.19;100013.50;5064533;28;1023;-63
2022/06/12 04:35:48;;;;;;;;;;;;;;;17.41;58.78;100032.44;5063387;28;1264;-65
2022/06/12 04:38:13;;;;;;;;;;;;;;;17.16;59.32;100027.31;5062633;28;1914;-63
2022/06/12 04:40:39;;;;;;;;;;;;;;;17.64;58.11;100035.38;5067088;28;1173;-64
2022/06/12 04:43:04;;;;;;;;;;;;;;;17.85;57.29;100013.06;5051017;28;1040;-62
2022/06/12 04:45:30;;;;;;;;;;;;;;;17.75;57.47;100020.38;5068501;28;925;-63
2022/06/12 04:47:55;;;;;;;;;;;;;;;17.89;57.82;100022.34;5046278;28;1017;-63
2022/06/12 04:50:20;;;;;;;;;;;;;;;18.09;57.33;100021.19;5064870;28;937;-63
2022/06/12 04:52:46;;;;;;;;;;;;;;;17.62;59.15;100005.44;5043900;28;1159;-62
2022/06/12 04:55:12;;;;;;;;;;;;;;;17.30;60.20;100025.44;5063645;28;1056;-61
2022/06/12 04:57:38;;;;;;;;;;;;;;;17.31;60.05;100013.34;5065787;28;1914;-60
2022/06/12 05:00:04;;;;;;;;;;;;;;;17.85;58.36;100030.41;5069403;28;1014;-61
2022/06/12 05:02:29;;;;;;;;;;;;;;;17.68;58.81;100024.63;5062869;28;1051;-61
2022/06/12 05:04:55;;;;;;;;;;;;;;;17.45;59.40;100030.72;5069119;28;1004;-61
2022/06/12 05:07:20;;;;;;;;;;;;;;;17.60;59.00;100031.63;5059484;28;1004;-59
2022/06/12 05:09:46;;;;;;;;;;;;;;;18.10;58.21;100020.91;5061781;28;1123;-60
2022/06/12 05:12:12;;;;;;;;;;;;;;;17.95;59.95;100029.44;5068204;28;1150;-60
2022/06/12 05:14:37;;;;;;;;;;;;;;;17.80;61.80;100013.97;5063330;28;1159;-61
2022/06/12 05:17:04;;;;;;;;;;;;;;;17.92;62.73;100014.34;5070488;28;1909;-59
2022/06/12 05:19:31;;;;;;;;;;;;;;;18.21;63.07;100009.72;5060421;28;1147;-60
2022/06/12 05:21:57;;;;;;;;;;;;;;;18.55;62.79;100008.53;5067787;28;1004;-60
2022/06/12 05:24:22;;;;;;;;;;;;;;;18.32;64.25;99999.34;5071142;28;937;-59
2022/06/12 05:26:48;;;;;;;;;;;;;;;18.14;65.33;100001.84;5069760;28;1067;-61
2022/06/12 05:29:15;;;;;;;;;;;;;;;17.97;65.82;99994.19;5052456;28;1001;-61
2022/06/12 05:31:41;;;;;;;;;;;;;;;17.87;67.18;99997.09;5050716;28;1100;-61
2022/06/12 05:34:06;;;;;;;;;;;;;;;18.07;67.17;100009.69;5072418;28;1028;-60
2022/06/12 05:36:32;;;;;;;;;;;;;;;18.17;67.25;100003.19;5062227;28;1910;-61
2022/06/12 05:38:57;;;;;;;;;;;;;;;18.21;67.37;99998.72;5072301;28;992;-61
2022/06/12 05:41:22;;;;;;;;;;;;;;;18.33;67.34;100012.81;5070859;28;968;-61
2022/06/12 05:43:48;;;;;;;;;;;;;;;18.23;67.97;100010.22;5074520;28;984;-61
2022/06/12 05:46:14;;;;;;;;;;;;;;;18.31;68.08;100004.03;5071656;28;1004;-61
2022/06/12 05:48:40;;;;;;;;;;;;;;;18.45;67.32;100013.13;5058803;28;972;-62
2022/06/12 05:51:05;;;;;;;;;;;;;;;18.30;67.80;100018.91;5066524;28;1004;-62
2022/06/12 05:53:31;;;;;;;;;;;;;;;18.34;67.56;100019.13;5065536;28;965;-60
2022/06/12 05:55:56;;;;;;;;;;;;;;;18.34;67.50;100025.44;5074723;28;980;-61
2022/06/12 05:58:22;;;;;;;;;;;;;;;18.28;67.42;100016.44;5072718;28;1906;-60
2022/06/12 06:00:48;;;;;;;;;;;;;;;18.34;67.32;100019.94;5072267;28;944;-62
2022/06/12 06:03:13;;;;;;;;;;;;;;;18.29;67.41;100018.09;5069103;28;996;-60
2022/06/12 06:05:39;;;;;;;;;;;;;;;18.27;67.55;100005.75;5074375;28;1187;-61
2022/06/12 06:08:04;;;;;;;;;;;;;;;18.31;67.27;100015.03;5051548;28;1040;-60
2022/06/12 06:10:30;;;;;;;;;;;;;;;18.30;65.12;100013.41;5059955;28;1214;-61
2022/06/12 06:12:55;;;;;;;;;;;;;;;17.82;63.79;100002.66;5066493;28;1012;-60
2022/06/12 06:15:21;;;;;;;;;;;;;;;17.81;61.31;100012.88;5051149;28;1034;-61
2022/06/12 06:17:46;;;;;;;;;;;;;;;18.09;58.68;100013.78;5062806;28;1997;-60
2022/06/12 06:20:13;;;;;;;;;;;;;;;18.08;55.71;100017.63;5071277;28;1119;-60
2022/06/12 06:22:38;;;;;;;;;;;;;;;18.23;54.70;100015.72;5070686;28;1167;-59
2022/06/12 06:25:04;;;;;;;;;;;;;;;17.83;54.08;100001.56;5071324;28;1134;-60
2022/06/12 06:27:29;;;;;;;;;;;;;;;17.26;53.80;100010.66;5058645;28;957;-59
2022/06/12 06:29:54;;;;;;;;;;;;;;;17.28;52.80;100012.00;5068872;28;985;-59
2022/06/12 06:32:20;;;;;;;;;;;;;;;17.78;50.05;100018.94;5069168;28;843;-58
2022/06/12 06:34:45;;;;;;;;;;;;;;;17.45;50.31;100005.19;5067620;28;1064;-59
2022/06/12 06:37:11;;;;;;;;;;;;;;;17.45;49.38;100005.19;5072525;28;1906;-59
2022/06/12 06:39:37;;;;;;;;;;;;;;;17.54;49.62;100019.06;5067476;28;985;-58
2022/06/12 06:42:03;;;;;;;;;;;;;;;17.55;51.44;100016.00;5073078;28;1142;-58
2022/06/12 06:47:12;;;;;;;;;;;;;;;17.93;54.93;100018.72;5064215;28;984;-60
2022/06/12 06:49:38;;;;;;;;;;;;;;;17.72;56.55;100020.16;5071490;28;1012;-61
2022/06/12 06:52:03;;;;;;;;;;;;;;;17.45;58.34;100019.72;5075545;28;949;-59
2022/06/12 06:54:29;;;;;;;;;;;;;;;17.50;59.14;100023.50;5069507;28;1063;-60
2022/06/12 06:56:55;;;;;;;;;;;;;;;17.94;58.55;100025.06;5069992;28;1893;-61
2022/06/12 06:59:20;;;;;;;;;;;;;;;17.94;58.70;100025.06;5069987;28;992;-60
2022/06/12 07:01:46;;;;;;;;;;;;;;;17.85;59.36;100029.56;5069580;28;1094;-60
2022/06/12 07:04:11;;;;;;;;;;;;;;;17.67;60.19;100029.31;5063126;28;1021;-61
2022/06/12 07:06:37;;;;;;;;;;;;;;;17.78;60.32;100030.78;5066676;28;1004;-61
2022/06/12 07:09:03;;;;;;;;;;;;;;;17.88;60.37;100028.94;5074135;28;1159;-61
2022/06/12 07:11:28;;;;;;;;;;;;;;;17.98;60.09;100026.09;5060805;28;1106;-60
2022/06/12 07:13:56;;;;;;;;;;;;;;;18.10;59.80;100033.84;5066867;28;1092;-61
2022/06/12 07:16:22;;;;;;;;;;;;;;;18.17;59.92;100030.72;5067653;28;2048;-60
2022/06/12 07:18:47;;;;;;;;;;;;;;;17.90;60.85;100040.50;5062095;28;1055;-60
2022/06/12 07:21:14;;;;;;;;;;;;;;;17.91;60.78;100042.16;5066389;28;1015;-60
2022/06/12 07:23:40;;;;;;;;;;;;;;;17.68;61.43;100035.59;5065918;28;1016;-60
2022/06/12 07:26:07;;;;;;;;;;;;;;;17.53;61.78;100039.41;5068477;28;956;-61
2022/06/12 07:28:33;;;;;;;;;;;;;;;17.60;61.67;100045.38;5065205;28;1131;-61
2022/06/12 07:30:58;;;;;;;;;;;;;;;18.07;60.01;100053.72;5067455;28;1201;-60
2022/06/12 07:33:24;;;;;;;;;;;;;;;18.22;59.66;100058.13;5069024;28;1119;-59
2022/06/12 07:35:49;;;;;;;;;;;;;;;17.89;60.72;100049.84;5076168;28;1115;-61
2022/06/12 07:38:15;;;;;;;;;;;;;;;17.95;60.53;100051.44;5045882;28;1905;-62
2022/06/12 07:40:43;;;;;;;;;;;;;;;17.90;60.64;100057.00;5050949;28;1013;-61
2022/06/12 07:43:08;;;;;;;;;;;;;;;17.98;60.42;100055.50;5044837;28;1190;-61
2022/06/12 07:45:34;;;;;;;;;;;;;;;18.06;60.40;100063.06;5068186;28;953;-61
2022/06/12 07:48:00;;;;;;;;;;;;;;;18.35;59.63;100053.78;5048959;28;989;-61
2022/06/12 07:50:25;;;;;;;;;;;;;;;18.09;60.32;100068.81;5070027;28;976;-61
2022/06/12 07:52:51;;;;;;;;;;;;;;;17.81;61.56;100056.88;5071374;28;1036;-62
2022/06/12 07:55:16;;;;;;;;;;;;;;;18.03;60.60;100067.25;5065257;28;1019;-62
2022/06/12 07:57:42;;;;;;;;;;;;;;;17.99;61.07;100057.94;5068966;28;1913;-62
2022/06/12 08:00:08;;;;;;;;;;;;;;;18.22;60.44;100052.63;5071173;28;964;-61
2022/06/12 08:02:37;;;;;;;;;;;;;;;18.23;60.26;100057.00;5069338;28;1016;-62
2022/06/12 08:05:03;;;;;;;;;;;;;;;17.78;61.68;100058.28;5068630;28;1063;-61
2022/06/12 08:07:29;;;;;;;;;;;;;;;17.60;62.15;100062.66;5068626;28;1139;-61
2022/06/12 08:09:54;;;;;;;;;;;;;;;17.43;62.51;100063.19;5061498;28;926;-62
2022/06/12 08:12:20;;;;;;;;;;;;;;;17.77;61.75;100066.81;5067698;28;1660;-63
2022/06/12 08:14:45;;;;;;;;;;;;;;;18.23;59.98;100070.75;5068082;28;1138;-62
2022/06/12 08:17:11;;;;;;;;;;;;;;;18.34;59.64;100069.50;5067078;28;1905;-62
2022/06/12 08:22:20;;;;;;;;;;;;;;;17.97;61.22;100062.94;5073017;28;1074;-63
2022/06/12 08:24:45;;;;;;;;;;;;;;;17.98;61.01;100056.34;5047282;28;1133;-63
2022/06/12 08:27:11;;;;;;;;;;;;;;;17.87;61.43;100068.59;5071204;28;866;-62
2022/06/12 08:29:37;;;;;;;;;;;;;;;17.95;61.24;100070.69;5067695;28;1123;-61
2022/06/12 08:32:07;;;;;;;;;;;;;;;17.95;61.10;100077.00;5066425;28;980;-63
2022/06/12 08:34:41;;;;;;;;;;;;;;;18.20;60.61;100074.97;5072001;28;1178;-61
2022/06/12 08:37:11;;;;;;;;;;;;;;;18.55;59.49;100069.94;5068419;28;1906;-60
2022/06/12 08:39:37;;;;;;;;;;;;;;;18.63;59.52;100076.66;5072116;28;988;-61
2022/06/12 08:42:08;;;;;;;;;;;;;;;18.41;60.30;100069.91;5072287;28;945;-61
2022/06/12 08:44:43;;;;;;;;;;;;;;;18.02;61.39;100073.88;5067520;28;1032;-61
2022/06/12 08:47:14;;;;;;;;;;;;;;;17.78;61.12;100079.44;5071797;28;1055;-60
2022/06/12 08:49:42;;;;;;;;;;;;;;;17.58;62.01;100075.06;5052380;28;1052;-63
2022/06/12 08:52:31;;;;;;;;;;;;;;;17.62;61.14;100078.88;5074163;28;1027;-61
2022/06/12 08:55:06;;;;;;;;;;;;;;;17.93;59.37;100075.66;5058915;28;1211;-61
2022/06/12 08:57:34;;;;;;;;;;;;;;;18.19;58.07;100083.50;5058620;28;1906;-60
2022/06/12 09:00:09;;;;;;;;;;;;;;;18.18;57.87;100081.88;5055845;28;1019;-62
2022/06/12 09:02:37;;;;;;;;;;;;;;;17.95;58.58;100079.75;5074619;28;1426;-60
2022/06/12 09:05:04;;;;;;;;;;;;;;;17.86;58.73;100083.47;5073819;28;1230;-60
2022/06/12 09:07:35;;;;;;;;;;;;;;;17.85;58.58;100090.91;5081006;28;1011;-60
2022/06/12 09:10:09;;;;;;;;;;;;;;;18.15;57.55;100079.72;5077191;28;1043;-62
2022/06/12 09:13:04;;;;;;;;;;;;;;;18.50;56.53;100082.97;5072596;28;1186;-62
2022/06/12 09:15:35;;;;;;;;;;;;;;;18.45;56.78;100081.94;5057288;28;1254;-61
2022/06/12 09:18:10;;;;;;;;;;;;;;;17.88;58.29;100081.22;5073395;28;1918;-61
2022/06/12 09:20:44;;;;;;;;;;;;;;;17.77;58.36;100078.63;5075262;28;1111;-60
2022/06/12 09:23:13;;;;;;;;;;;;;;;17.84;58.14;100089.25;5073386;28;1198;-61
2022/06/12 09:25:49;;;;;;;;;;;;;;;17.91;58.09;100077.91;5079599;28;1225;-62
2022/06/12 09:28:18;;;;;;;;;;;;;;;18.20;57.25;100074.97;5074485;28;996;-61
2022/06/12 09:30:46;;;;;;;;;;;;;;;18.48;56.59;100083.25;5068069;28;876;-63
2022/06/12 09:33:11;;;;;;;;;;;;;;;18.35;57.40;100087.63;5081764;28;1087;-61
2022/06/12 09:35:52;;;;;;;;;;;;;;;18.13;58.02;100082.75;5078837;28;1143;-62
2022/06/12 09:38:30;;;;;;;;;;;;;;;17.70;59.11;100077.38;5075677;28;1914;-59
2022/06/12 09:40:58;;;;;;;;;;;;;;;17.60;59.27;100079.16;5077854;28;1150;-60
2022/06/12 09:43:30;;;;;;;;;;;;;;;17.93;57.96;100079.22;5072421;28;1210;-61
2022/06/12 09:45:55;;;;;;;;;;;;;;;18.30;56.87;100066.50;5079176;28;1102;-63
2022/06/12 09:48:21;;;;;;;;;;;;;;;18.28;57.16;100090.75;5069909;28;1103;-60
2022/06/12 09:50:46;;;;;;;;;;;;;;;18.11;57.33;100093.25;5073902;28;937;-60
2022/06/12 09:53:35;;;;;;;;;;;;;;;17.90;58.00;100081.75;5068335;28;937;-59
2022/06/12 09:56:04;;;;;;;;;;;;;;;17.99;57.60;100068.16;5060491;28;1247;-59
2022/06/12 09:58:38;;;;;;;;;;;;;;;18.34;56.46;100065.91;5056943;28;1918;-60
2022/06/12 10:01:05;;;;;;;;;;;;;;;18.49;56.05;100060.13;5055503;28;965;-61
2022/06/12 10:03:42;;;;;;;;;;;;;;;18.22;56.94;100061.69;5049029;28;1116;-60
2022/06/12 10:06:25;;;;;;;;;;;;;;;17.88;58.12;100065.53;5066711;28;1024;-60
2022/06/12 10:08:53;;;;;;;;;;;;;;;17.71;58.40;100074.34;5076805;28;837;-61
2022/06/12 10:11:23;;;;;;;;;;;;;;;17.77;58.43;100077.81;5065080;28;1194;-61
2022/06/12 10:14:07;;;;;;;;;;;;;;;18.11;57.22;100076.75;5053738;28;1008;-60
2022/06/12 10:16:41;;;;;;;;;;;;;;;18.49;56.10;100073.88;5077472;28;1902;-60
2022/06/12 10:19:20;;;;;;;;;;;;;;;18.41;56.41;100077.31;5065391;28;941;-61
2022/06/12 10:21:47;;;;;;;;;;;;;;;18.12;57.25;100092.97;5046257;28;989;-62
2022/06/12 10:24:12;;;;;;;;;;;;;;;17.89;57.89;100091.09;5041853;28;1206;-62
2022/06/12 10:26:38;;;;;;;;;;;;;;;17.77;58.27;100086.06;5072426;28;1031;-62
2022/06/12 10:29:11;;;;;;;;;;;;;;;18.13;57.34;100089.09;5070450;28;984;-62
2022/06/12 10:31:46;;;;;;;;;;;;;;;18.03;57.51;100097.50;5069835;28;1011;-61
2022/06/12 10:34:19;;;;;;;;;;;;;;;18.20;57.16;100085.13;5067931;28;1052;-60
2022/06/12 10:36:45;;;;;;;;;;;;;;;18.56;56.36;100084.50;5064617;28;1906;-60
2022/06/12 10:39:10;;;;;;;;;;;;;;;18.55;56.30;100080.09;5073312;28;1163;-60
2022/06/12 10:41:45;;;;;;;;;;;;;;;18.11;57.51;100087.75;5065477;28;969;-59
2022/06/12 10:44:29;;;;;;;;;;;;;;;18.00;58.18;100087.09;5067209;28;1087;-61
2022/06/12 10:46:54;;;;;;;;;;;;;;;17.97;58.24;100079.47;5070099;28;953;-61
2022/06/12 10:49:22;;;;;;;;;;;;;;;18.13;57.55;100080.84;5058307;28;1123;-61
2022/06/12 10:51:47;;;;;;;;;;;;;;;18.35;56.93;100065.59;5069845;28;933;-61
2022/06/12 10:54:13;;;;;;;;;;;;;;;18.59;55.99;100076.47;5050611;28;1033;-61
2022/06/12 10:56:43;;;;;;;;;;;;;;;18.78;55.50;100073.59;5075093;28;1964;-63
2022/06/12 10:59:14;;;;;;;;;;;;;;;18.46;56.05;100071.75;5048984;28;981;-61
2022/06/12 11:01:46;;;;;;;;;;;;;;;18.04;55.54;100063.38;5066807;28;1159;-62
2022/06/12 11:04:30;;;;;;;;;;;;;;;17.68;53.64;100057.59;5071793;28;1095;-63
2022/06/12 11:07:02;;;;;;;;;;;;;;;17.54;51.15;100052.03;5069832;28;961;-62
2022/06/12 11:09:57;;;;;;;;;;;;;;;17.62;48.68;100051.38;5070736;28;1142;-63
2022/06/12 11:12:23;;;;;;;;;;;;;;;17.72;46.39;100042.94;5051063;28;1266;-62
2022/06/12 11:14:51;;;;;;;;;;;;;;;17.71;45.92;100043.25;5065118;28;1212;-63
2022/06/12 11:17:39;;;;;;;;;;;;;;;17.59;45.33;100041.78;5072482;28;1896;-63
2022/06/12 11:20:17;;;;;;;;;;;;;;;17.78;47.68;100047.28;5057231;28;1049;-60
2022/06/12 11:22:49;;;;;;;;;;;;;;;18.20;50.99;100038.34;5066625;28;1170;-63
2022/06/12 11:25:25;;;;;;;;;;;;;;;18.29;54.57;100037.34;5048517;28;1167;-65
2022/06/12 11:27:56;;;;;;;;;;;;;;;18.15;58.18;100038.47;5070168;28;1207;-65
2022/06/12 11:30:22;;;;;;;;;;;;;;;18.36;59.69;100034.22;5045427;28;977;-65
2022/06/12 11:32:54;;;;;;;;;;;;;;;18.40;61.33;100034.44;5061561;28;1088;-65
2022/06/12 11:35:38;;;;;;;;;;;;;;;18.49;62.47;100034.53;5068117;28;996;-64
2022/06/12 11:38:13;;;;;;;;;;;;;;;18.63;63.19;100035.34;5073781;28;1905;-64
2022/06/12 11:40:44;;;;;;;;;;;;;;;18.71;63.57;100037.38;5069277;28;1050;-65
2022/06/12 11:43:10;;;;;;;;;;;;;;;18.67;62.98;100027.31;5068047;28;929;-64
2022/06/12 11:45:35;;;;;;;;;;;;;;;18.62;60.11;100023.53;5067972;28;1031;-64
2022/06/12 11:48:04;;;;;;;;;;;;;;;18.27;57.39;100014.00;5066458;28;1008;-64
2022/06/12 11:50:48;;;;;;;;;;;;;;;17.95;54.69;100010.19;5073009;28;1032;-63
2022/06/12 11:53:28;;;;;;;;;;;;;;;17.77;51.47;100007.13;5072212;28;1103;-63
2022/06/12 11:55:59;;;;;;;;;;;;;;;17.75;48.91;100005.78;5071507;28;1060;-63
2022/06/12 11:58:25;;;;;;;;;;;;;;;17.91;46.84;100011.91;5070598;28;1968;-63
2022/06/12 12:00:53;;;;;;;;;;;;;;;17.53;46.26;100003.66;5062828;28;1001;-63
2022/06/12 12:03:47;;;;;;;;;;;;;;;17.68;45.07;99997.13;5070329;28;1147;-64
2022/06/12 12:06:25;;;;;;;;;;;;;;;17.50;44.27;100001.53;5045251;28;1132;-61
2022/06/12 12:08:53;;;;;;;;;;;;;;;17.41;44.17;99993.16;5075639;28;1115;-63
2022/06/12 12:11:26;;;;;;;;;;;;;;;17.41;43.61;99993.16;5066206;28;1020;-62
2022/06/12 12:13:53;;;;;;;;;;;;;;;17.26;44.31;99983.19;5053640;28;1161;-61
2022/06/12 12:16:27;;;;;;;;;;;;;;;17.50;44.19;99985.03;5047163;28;1032;-63
2022/06/12 12:18:54;;;;;;;;;;;;;;;17.46;45.98;99968.34;5073314;28;1167;-62
2022/06/12 12:21:43;;;;;;;;;;;;;;;17.69;46.87;99976.75;5046055;28;1064;-65
2022/06/12 12:24:12;;;;;;;;;;;;;;;18.00;48.99;99976.25;5015861;28;1225;-63
2022/06/12 12:26:38;;;;;;;;;;;;;;;18.17;52.64;99989.44;5072152;28;1008;-63
2022/06/12 12:29:05;;;;;;;;;;;;;;;18.01;55.62;99984.22;5070252;28;942;-62
2022/06/12 12:31:30;;;;;;;;;;;;;;;17.88;57.21;99990.44;5067735;28;1013;-64
2022/06/12 12:33:56;;;;;;;;;;;;;;;18.08;58.02;99983.81;5048810;28;984;-62
2022/06/12 12:41:52;;;;;;;;;;;;;;;18.36;59.01;99978.34;5058639;28;847;-62
2022/06/12 12:44:34;;;;;;;;;;;;;;;18.45;58.93;99988.34;5070252;28;1076;-63
2022/06/12 12:46:59;;;;;;;;;;;;;;;18.47;58.84;99980.59;5055078;28;878;-64
2022/06/12 12:49:28;;;;;;;;;;;;;;;18.45;58.87;99982.00;5067162;28;1087;-64
2022/06/12 12:52:08;;;;;;;;;;;;;;;18.55;57.94;99978.25;5059333;28;996;-64
2022/06/12 12:54:44;;;;;;;;;;;;;;;18.51;57.66;99985.47;5067713;28;945;-61
2022/06/12 12:57:10;;;;;;;;;;;;;;;18.49;57.01;99983.03;5072834;28;1906;-60
2022/06/12 12:59:42;;;;;;;;;;;;;;;18.66;56.20;99987.91;5066241;28;940;-62
2022/06/12 13:02:28;;;;;;;;;;;;;;;18.24;56.05;99987.09;5068616;28;996;-61
2022/06/12 13:04:55;;;;;;;;;;;;;;;18.20;54.68;99994.31;5062522;28;1464;-63
2022/06/12 13:07:23;;;;;;;;;;;;;;;18.44;52.69;99986.72;5073271;28;1201;-61
2022/06/12 13:09:53;;;;;;;;;;;;;;;18.35;51.57;99994.03;5063195;28;1126;-62
2022/06/12 13:12:30;;;;;;;;;;;;;;;18.53;50.10;99994.25;5042862;28;1190;-62
2022/06/12 13:15:15;;;;;;;;;;;;;;;18.60;49.12;99997.41;5063735;28;1131;-62
2022/06/12 13:17:49;;;;;;;;;;;;;;;18.24;49.66;100003.59;5069985;28;1890;-62